MSC Corinna — 3FPI7 — position and weather

sailwx.info

Track history (hours):
 
Tides and Currents Weather Stations Pressure Air Temp Water Temp Dewpoint Dewpoint Depression Visibility Wind Speed Wind Dir Waves Ship Positions

MSC Corinna

Last reported at 2014-Jun-24 18:31 UTC. Time now 2014-Nov-23 12:18 UTC.
Position N 29°37' E 032°31'.
Warning: this ship's position is months out of date.

Length 207 m; draft 7.9 m.

Type: Ship (hazmat cat A). MMSI: 351482000.

Date/timePositionNaut miles runAvg speedWind from/ knotsBaromVisibWave heightAir tempDewpointWater temp
2014-Jun-24 18:31N 29°37' E 032°31'106 4.8
2014-Jun-23 20:29N 31°22' E 032°19'3511.8
2014-Jun-23 17:33N 31°49' E 032°44'1817.5
2014-Jun-23 16:33N 31°55' E 033°03'1818.1
2014-Jun-23 15:33N 32°00' E 033°24'1616.1
2014-Jun-23 14:33N 32°05' E 033°42'2613.2
2014-Jun-23 12:33N 31°59' E 034°12'  
2014-Jun-20 10:20N 31°49' E 034°39'5 0.4
2014-Jun-19 19:19N 31°51' E 034°33'3512.5
2014-Jun-19 16:32N 32°05' E 033°55'1411.8
2014-Jun-19 15:19N 32°03' E 033°38'1112.9
2014-Jun-19 14:29N 31°59' E 033°26'1213.1
2014-Jun-19 13:33N 31°55' E 033°12'1313.6
2014-Jun-19 12:33N 31°50' E 032°57'1413.7
2014-Jun-19 11:33N 31°45' E 032°43'1913.9
2014-Jun-19 10:13N 31°36' E 032°24'21 4.6
2014-Jun-19 05:33N 31°15' E 032°18'0 0.0
2014-Jun-19 04:31N 31°15' E 032°18'0 0.0
2014-Jun-19 01:32N 31°15' E 032°18'0 0.0
2014-Jun-19 00:31N 31°15' E 032°18'0 0.0
2014-Jun-18 23:28N 31°15' E 032°18'0 0.0
2014-Jun-18 21:25N 31°15' E 032°18'0 0.0
2014-Jun-18 13:28N 31°15' E 032°18'0 0.0
2014-Jun-18 11:32N 31°15' E 032°18'0 0.0
2014-Jun-18 10:26N 31°15' E 032°18'0 0.2
2014-Jun-18 09:33N 31°15' E 032°18'8 3.4
2014-Jun-18 07:14N 31°23' E 032°17'0 0.0
2014-Jun-18 06:33N 31°23' E 032°17'0 0.0
2014-Jun-18 00:32N 31°23' E 032°17'0 0.0
2014-Jun-17 22:31N 31°23' E 032°17'0 0.0
2014-Jun-17 19:23N 31°23' E 032°17'0 0.0
2014-Jun-17 17:19N 31°23' E 032°17'0 0.0
2014-Jun-17 16:33N 31°23' E 032°17'0 0.0
2014-Jun-17 15:30N 31°23' E 032°17'0 0.0
2014-Jun-17 14:32N 31°23' E 032°17'0 0.0
2014-Jun-17 12:19N 31°23' E 032°17'0 0.0
2014-Jun-17 11:31N 31°23' E 032°17'0 0.0
2014-Jun-17 08:21N 31°23' E 032°17'0 0.0
2014-Jun-16 21:08N 31°23' E 032°17'0 0.0
2014-Jun-16 07:18N 31°23' E 032°17'0 0.0
2014-Jun-16 06:33N 31°23' E 032°17'0 0.0
2014-Jun-16 05:20N 31°23' E 032°17'0 0.1
2014-Jun-16 04:33N 31°23' E 032°17'1 0.1
2014-Jun-15 16:17N 31°22' E 032°17'9 8.3
2014-Jun-15 15:08N 31°31' E 032°13'5615.6
2014-Jun-15 11:33N 32°03' E 031°19'1616.2
2014-Jun-15 10:33N 32°10' E 031°02'1616.2
2014-Jun-15 09:34N 32°18' E 030°45'2116.1
2014-Jun-15 08:15N 32°28' E 030°23'2716.2
2014-Jun-15 06:34N 32°41' E 029°54'5315.7
2014-Jun-15 03:12N 33°05' E 028°58'  
Track history (hours):
 
Tides and Currents Weather Stations Pressure Air Temp Water Temp Dewpoint Dewpoint Depression Visibility Wind Speed Wind Dir Waves Ship Positions

MSC Corinna

Last reported at 2014-Jun-24 18:31 UTC. Time now 2014-Nov-23 12:18 UTC.
Position N 29°37' E 032°31'.
Warning: this ship's position is months out of date.

Length 207 m; draft 7.9 m.

Type: Ship (hazmat cat A). MMSI: 351482000.

Date/timePositionNaut miles runAvg speedWind from/ knotsBaromVisibWave heightAir tempDewpointWater temp
2014-Jun-24 18:31N 29°37' E 032°31'106 4.8
2014-Jun-23 20:29N 31°22' E 032°19'3511.8
2014-Jun-23 17:33N 31°49' E 032°44'1817.5
2014-Jun-23 16:33N 31°55' E 033°03'1818.1
2014-Jun-23 15:33N 32°00' E 033°24'1616.1
2014-Jun-23 14:33N 32°05' E 033°42'2613.2
2014-Jun-23 12:33N 31°59' E 034°12'  
2014-Jun-20 10:20N 31°49' E 034°39'5 0.4
2014-Jun-19 19:19N 31°51' E 034°33'3512.5
2014-Jun-19 16:32N 32°05' E 033°55'1411.8
2014-Jun-19 15:19N 32°03' E 033°38'1112.9
2014-Jun-19 14:29N 31°59' E 033°26'1213.1
2014-Jun-19 13:33N 31°55' E 033°12'1313.6
2014-Jun-19 12:33N 31°50' E 032°57'1413.7
2014-Jun-19 11:33N 31°45' E 032°43'1913.9
2014-Jun-19 10:13N 31°36' E 032°24'21 4.6
2014-Jun-19 05:33N 31°15' E 032°18'0 0.0
2014-Jun-19 04:31N 31°15' E 032°18'0 0.0
2014-Jun-19 01:32N 31°15' E 032°18'0 0.0
2014-Jun-19 00:31N 31°15' E 032°18'0 0.0
2014-Jun-18 23:28N 31°15' E 032°18'0 0.0
2014-Jun-18 21:25N 31°15' E 032°18'0 0.0
2014-Jun-18 13:28N 31°15' E 032°18'0 0.0
2014-Jun-18 11:32N 31°15' E 032°18'0 0.0
2014-Jun-18 10:26N 31°15' E 032°18'0 0.2
2014-Jun-18 09:33N 31°15' E 032°18'8 3.4
2014-Jun-18 07:14N 31°23' E 032°17'0 0.0
2014-Jun-18 06:33N 31°23' E 032°17'0 0.0
2014-Jun-18 00:32N 31°23' E 032°17'0 0.0
2014-Jun-17 22:31N 31°23' E 032°17'0 0.0
2014-Jun-17 19:23N 31°23' E 032°17'0 0.0
2014-Jun-17 17:19N 31°23' E 032°17'0 0.0
2014-Jun-17 16:33N 31°23' E 032°17'0 0.0
2014-Jun-17 15:30N 31°23' E 032°17'0 0.0
2014-Jun-17 14:32N 31°23' E 032°17'0 0.0
2014-Jun-17 12:19N 31°23' E 032°17'0 0.0
2014-Jun-17 11:31N 31°23' E 032°17'0 0.0
2014-Jun-17 08:21N 31°23' E 032°17'0 0.0
2014-Jun-16 21:08N 31°23' E 032°17'0 0.0
2014-Jun-16 07:18N 31°23' E 032°17'0 0.0
2014-Jun-16 06:33N 31°23' E 032°17'0 0.0
2014-Jun-16 05:20N 31°23' E 032°17'0 0.1
2014-Jun-16 04:33N 31°23' E 032°17'1 0.1
2014-Jun-15 16:17N 31°22' E 032°17'9 8.3
2014-Jun-15 15:08N 31°31' E 032°13'5615.6
2014-Jun-15 11:33N 32°03' E 031°19'1616.2
2014-Jun-15 10:33N 32°10' E 031°02'1616.2
2014-Jun-15 09:34N 32°18' E 030°45'2116.1
2014-Jun-15 08:15N 32°28' E 030°23'2716.2
2014-Jun-15 06:34N 32°41' E 029°54'5315.7
2014-Jun-15 03:12N 33°05' E 028°58'  

Dump ship's entire track history